Time;durP1;ratioP1;P1;durP2;ratioP2;P2;SDS_P1;SDS_P2;PMS_P1;PMS_P2;Temp;Humidity;BMP_temperature;BMP_pressure;BME280_temperature;BME280_humidity;BME280_pressure;Samples;Min_cycle;Max_cycle;Signal;HPM_P1;HPM_P2
2023/03/16 00:01:22;;;;;;;5.82;2.78;;;;;;;-1.02;95.86;101379.50;5082134;28;20052;-79
2023/03/16 00:03:48;;;;;;;4.22;1.50;;;;;;;-1.05;95.52;101379.31;5080345;28;20122;-77
2023/03/16 00:06:15;;;;;;;6.80;2.20;;;;;;;-1.08;95.85;101383.41;5074781;28;20049;-75
2023/03/16 00:08:42;;;;;;;3.47;2.53;;;;;;;-1.12;96.20;101379.84;5086433;28;20123;-79
2023/03/16 00:11:11;;;;;;;7.30;2.63;;;;;;;-1.12;95.97;101384.97;5064566;28;20093;-82
2023/03/16 00:13:37;;;;;;;4.60;1.95;;;;;;;-1.11;95.96;101383.28;5078012;28;20486;-76
2023/03/16 00:16:04;;;;;;;4.97;2.33;;;;;;;-1.08;96.15;101391.13;5056160;28;20494;-75
2023/03/16 00:18:37;;;;;;;6.57;1.85;;;;;;;-1.11;95.72;101383.28;5079692;28;20537;-78
2023/03/16 00:21:04;;;;;;;3.55;1.85;;;;;;;-1.10;96.52;101385.91;5074896;28;20044;-79
2023/03/16 00:23:34;;;;;;;3.75;2.13;;;;;;;-1.10;96.02;101382.47;5080933;28;20047;-75
2023/03/16 00:26:04;;;;;;;5.53;3.35;;;;;;;-1.09;96.81;101385.13;5075660;28;20045;-74
2023/03/16 00:28:42;;;;;;;5.82;1.27;;;;;;;-1.12;96.56;101389.22;5085216;28;20154;-75
2023/03/16 00:31:13;;;;;;;3.25;2.08;;;;;;;-1.10;96.35;101391.06;5081137;28;20048;-79
2023/03/16 00:33:42;;;;;;;5.50;2.95;;;;;;;-1.07;96.35;101382.63;5083426;28;20114;-76
2023/03/16 00:36:10;;;;;;;5.13;1.88;;;;;;;-1.07;95.57;101378.38;5087091;28;20064;-75
2023/03/16 00:38:43;;;;;;;5.63;2.40;;;;;;;-1.06;96.42;101380.13;5085121;28;20043;-76
2023/03/16 00:41:13;;;;;;;5.28;2.42;;;;;;;-1.04;96.21;101378.53;5078317;28;20041;-75
2023/03/16 00:43:42;;;;;;;2.95;1.67;;;;;;;-0.98;96.38;101379.63;5059286;28;20882;-77
2023/03/16 00:46:18;;;;;;;5.40;1.70;;;;;;;-1.02;95.93;101382.06;5069594;28;21064;-74
2023/03/16 00:48:47;;;;;;;3.08;1.60;;;;;;;-1.01;96.37;101377.81;5075029;28;20048;-74
2023/03/16 00:51:16;;;;;;;4.00;2.03;;;;;;;-1.00;95.49;101372.72;5074472;28;20164;-73
2023/03/16 00:53:47;;;;;;;1.65;1.52;;;;;;;-1.00;96.24;101374.44;5080487;28;20036;-75
2023/03/16 00:56:13;;;;;;;5.15;1.75;;;;;;;-0.96;95.76;101362.63;5079381;28;20040;-78
2023/03/16 00:58:42;;;;;;;4.30;1.70;;;;;;;-0.96;95.49;101363.50;5049795;28;20040;-79
2023/03/16 01:01:13;;;;;;;3.70;1.73;;;;;;;-0.94;95.76;101366.13;5076421;28;20044;-81
2023/03/16 01:03:40;;;;;;;5.72;1.63;;;;;;;-0.91;95.05;101364.59;5082536;28;20490;-74
2023/03/16 01:06:14;;;;;;;5.32;1.33;;;;;;;-0.95;95.10;101361.78;5081488;28;20043;-75
2023/03/16 01:08:41;;;;;;;2.85;1.52;;;;;;;-0.99;95.47;101368.50;5075953;28;20048;-74
2023/03/16 01:11:15;;;;;;;5.50;1.55;;;;;;;-1.01;95.34;101365.81;5065937;28;20604;-78
2023/03/16 01:13:41;;;;;;;3.60;1.48;;;;;;;-1.06;94.80;101364.72;5063719;28;20068;-78
2023/03/16 01:16:09;;;;;;;10.05;3.55;;;;;;;-1.10;95.54;101367.06;5065087;28;20047;-74
2023/03/16 01:18:36;;;;;;;3.22;1.67;;;;;;;-1.13;95.53;101366.88;5082872;28;20240;-75
2023/03/16 01:21:08;;;;;;;3.88;1.20;;;;;;;-1.18;95.30;101370.13;5084258;28;20047;-75
2023/03/16 01:23:37;;;;;;;6.43;1.55;;;;;;;-1.23;96.11;101363.00;5075584;28;20475;-76
2023/03/16 01:26:04;;;;;;;4.93;1.70;;;;;;;-1.26;96.55;101350.88;5084073;28;20048;-74
2023/03/16 01:28:33;;;;;;;6.18;1.90;;;;;;;-1.28;96.58;101349.03;5079811;28;20089;-74
2023/03/16 01:31:10;;;;;;;4.20;1.77;;;;;;;-1.30;96.66;101353.19;5086779;28;20048;-80
2023/03/16 01:33:38;;;;;;;10.48;2.33;;;;;;;-1.33;97.14;101353.94;5080153;28;20051;-74
2023/03/16 01:36:17;;;;;;;3.22;1.55;;;;;;;-1.33;97.00;101351.34;5084442;28;20052;-74
2023/03/16 01:38:44;;;;;;;2.30;1.23;;;;;;;-1.41;97.91;101352.66;5086596;28;20052;-80
2023/03/16 01:41:13;;;;;;;6.07;1.88;;;;;;;-1.44;97.98;101353.38;5090168;28;20060;-74
2023/03/16 01:43:42;;;;;;;7.65;2.42;;;;;;;-1.46;97.77;101349.88;5090842;28;20036;-76
2023/03/16 01:46:27;;;;;;;2.28;1.38;;;;;;;-1.47;98.74;101353.25;5084400;28;20047;-77
2023/03/16 01:49:01;;;;;;;6.22;1.60;;;;;;;-1.52;98.24;101360.69;5081720;28;20089;-75
2023/03/16 01:51:51;;;;;;;3.00;1.70;;;;;;;-1.54;98.19;101362.31;5085397;28;20047;-75
2023/03/16 01:54:57;;;;;;;4.22;1.33;;;;;;;-1.58;98.72;101359.50;5080383;28;20115;-77
2023/03/16 01:57:29;;;;;;;3.40;1.00;;;;;;;-1.61;99.03;101354.22;5089008;28;20161;-74
2023/03/16 02:00:18;;;;;;;3.65;1.45;;;;;;;-1.61;98.97;101354.22;5088356;28;20142;-77
2023/03/16 02:02:54;;;;;;;4.30;1.67;;;;;;;-1.60;99.37;101353.41;5079683;28;20120;-77
2023/03/16 02:05:29;;;;;;;6.60;1.67;;;;;;;-1.62;99.21;101350.75;5089800;28;20048;-76
2023/03/16 02:07:57;;;;;;;7.15;2.20;;;;;;;-1.61;99.33;101352.53;5081018;28;20487;-73
2023/03/16 02:10:27;;;;;;;3.83;1.35;;;;;;;-1.64;99.65;101354.03;5081339;28;20441;-75
2023/03/16 02:12:56;;;;;;;7.38;1.88;;;;;;;-1.67;99.85;101350.53;5076588;28;20036;-76
2023/03/16 02:15:23;;;;;;;5.47;1.67;;;;;;;-1.70;99.40;101352.91;5073023;28;20101;-74
2023/03/16 02:17:50;;;;;;;3.22;1.30;;;;;;;-1.75;99.30;101349.22;5087692;28;20044;-76
2023/03/16 02:20:46;;;;;;;1.58;1.02;;;;;;;-1.73;99.77;101346.78;5077865;28;20506;-75
2023/03/16 02:23:18;;;;;;;4.07;1.60;;;;;;;-1.70;100.00;101341.78;5081044;28;20036;-74
2023/03/16 02:26:15;;;;;;;4.18;1.52;;;;;;;-1.68;100.00;101338.50;5061901;28;20044;-77
2023/03/16 02:28:53;;;;;;;3.20;1.40;;;;;;;-1.74;99.53;101338.16;5073630;28;20118;-74
2023/03/16 02:31:21;;;;;;;6.60;2.50;;;;;;;-1.76;100.00;101334.66;5071070;28;20369;-74
2023/03/16 02:33:50;;;;;;;3.13;1.33;;;;;;;-1.76;99.83;101332.09;5086435;28;20040;-75
2023/03/16 02:36:19;;;;;;;2.78;2.22;;;;;;;-1.77;99.87;101321.72;5072041;28;20066;-74
2023/03/16 02:38:46;;;;;;;2.92;1.30;;;;;;;-1.73;100.00;101323.66;5073128;28;20740;-79
2023/03/16 02:41:19;;;;;;;3.83;1.38;;;;;;;-1.72;100.00;101325.41;5085049;28;20054;-74
2023/03/16 02:43:54;;;;;;;6.30;1.80;;;;;;;-1.74;100.00;101312.50;5079682;28;20277;-76
2023/03/16 02:46:23;;;;;;;7.85;2.72;;;;;;;-1.73;100.00;101326.25;5078348;28;20590;-79
2023/03/16 02:49:01;;;;;;;4.15;2.08;;;;;;;-1.76;100.00;101318.34;5082487;28;20494;-74
2023/03/16 02:51:29;;;;;;;5.38;1.95;;;;;;;-1.78;100.00;101314.84;5105726;28;20086;-76
2023/03/16 02:53:55;;;;;;;5.10;1.80;;;;;;;-1.79;100.00;101310.50;5089557;28;20040;-84
2023/03/16 02:56:22;;;;;;;7.25;2.58;;;;;;;-1.80;100.00;101308.75;5087978;28;20044;-73
2023/03/16 02:58:48;;;;;;;4.55;2.33;;;;;;;-1.80;100.00;101312.19;5080744;28;20051;-75
2023/03/16 03:01:15;;;;;;;6.45;2.10;;;;;;;-1.85;100.00;101304.25;5088950;28;20036;-79
2023/03/16 03:03:42;;;;;;;7.65;1.77;;;;;;;-1.90;100.00;101300.56;5084945;28;20123;-75
2023/03/16 03:06:09;;;;;;;7.82;2.90;;;;;;;-1.93;100.00;101307.22;5068724;28;20486;-74
2023/03/16 03:08:36;;;;;;;4.40;1.80;;;;;;;-1.95;100.00;101303.69;5097268;28;20483;-77
2023/03/16 03:11:02;;;;;;;4.85;2.63;;;;;;;-2.00;100.00;101300.88;5065091;28;20052;-77
2023/03/16 03:13:30;;;;;;;5.45;2.90;;;;;;;-2.03;100.00;101296.47;5077746;28;20040;-78
2023/03/16 03:15:56;;;;;;;11.55;2.45;;;;;;;-2.03;100.00;101303.31;5083736;28;20044;-80
2023/03/16 03:18:24;;;;;;;5.28;2.75;;;;;;;-2.04;100.00;101297.25;5085823;28;20479;-77
2023/03/16 03:20:50;;;;;;;5.28;2.00;;;;;;;-2.06;100.00;101298.00;5087211;28;20097;-77
2023/03/16 03:23:17;;;;;;;4.53;2.40;;;;;;;-2.06;100.00;101295.41;5081869;28;20101;-74
2023/03/16 03:25:46;;;;;;;2.80;2.10;;;;;;;-2.07;100.00;101301.38;5081567;28;20059;-76
2023/03/16 03:28:14;;;;;;;2.22;2.03;;;;;;;-2.08;100.00;101295.34;5086007;28;20044;-78
2023/03/16 03:30:40;;;;;;;2.75;2.13;;;;;;;-2.07;100.00;101294.56;5082512;28;20046;-75
2023/03/16 03:33:07;;;;;;;2.78;2.17;;;;;;;-2.05;100.00;101297.19;5086223;28;20083;-75
2023/03/16 03:35:33;;;;;;;5.60;2.15;;;;;;;-2.03;100.00;101295.59;5088515;28;20044;-76
2023/03/16 03:38:00;;;;;;;3.13;1.55;;;;;;;-2.04;100.00;101299.84;5085593;28;20036;-74
2023/03/16 03:40:26;;;;;;;2.20;1.40;;;;;;;-2.09;100.00;101301.28;5085634;28;20048;-79
2023/03/16 03:42:53;;;;;;;3.97;2.28;;;;;;;-2.09;100.00;101305.53;5086263;28;20043;-79
2023/03/16 03:45:19;;;;;;;5.72;1.95;;;;;;;-2.11;100.00;101305.47;5078407;28;20047;-75
2023/03/16 03:47:46;;;;;;;9.85;2.08;;;;;;;-2.10;100.00;101303.75;5075190;28;20396;-74
2023/03/16 03:50:13;;;;;;;2.08;1.65;;;;;;;-2.10;100.00;101299.53;5067066;28;20099;-74
2023/03/16 03:52:40;;;;;;;2.33;2.00;;;;;;;-2.11;100.00;101302.91;5089478;28;20045;-74
2023/03/16 03:55:07;;;;;;;3.35;1.90;;;;;;;-2.11;100.00;101305.47;5069065;28;20041;-75
2023/03/16 03:57:34;;;;;;;3.40;2.13;;;;;;;-2.13;100.00;101301.91;5081441;28;20040;-78
2023/03/16 04:00:00;;;;;;;5.57;1.98;;;;;;;-2.16;100.00;101302.63;5075209;28;20051;-74
2023/03/16 04:02:27;;;;;;;2.10;1.65;;;;;;;-2.15;100.00;101300.97;5082261;28;20048;-75
2023/03/16 04:04:53;;;;;;;3.85;1.67;;;;;;;-2.13;100.00;101309.59;5082433;28;20050;-85
2023/03/16 04:07:20;;;;;;;2.42;2.20;;;;;;;-2.13;100.00;101307.03;5076704;28;20056;-79
2023/03/16 04:09:46;;;;;;;3.15;1.52;;;;;;;-2.16;100.00;101312.03;5076878;28;20051;-74
2023/03/16 04:12:13;;;;;;;3.25;1.70;;;;;;;-2.21;100.00;101313.47;5084438;28;20039;-78
2023/03/16 04:14:39;;;;;;;5.20;1.77;;;;;;;-2.19;100.00;101311.84;5077911;28;20044;-77
2023/03/16 04:17:06;;;;;;;6.55;1.88;;;;;;;-2.16;100.00;101301.75;5059389;28;20052;-82
2023/03/16 04:19:32;;;;;;;2.65;1.40;;;;;;;-2.12;100.00;101305.38;5084353;28;20116;-75
2023/03/16 04:21:59;;;;;;;3.42;1.60;;;;;;;-2.12;100.00;101300.25;5082780;28;20044;-74
2023/03/16 04:24:26;;;;;;;5.53;2.53;;;;;;;-2.13;100.00;101301.91;5085935;28;20119;-77
2023/03/16 04:26:53;;;;;;;5.75;2.03;;;;;;;-2.13;100.00;101301.91;5084668;28;20086;-75
2023/03/16 04:29:19;;;;;;;4.18;1.45;;;;;;;-2.13;100.00;101291.66;5087789;28;20560;-76
2023/03/16 04:31:46;;;;;;;3.40;1.80;;;;;;;-2.16;100.00;101288.94;5082999;28;20068;-75
2023/03/16 04:34:13;;;;;;;4.70;1.38;;;;;;;-2.17;100.00;101295.72;5071056;28;20131;-76
2023/03/16 04:36:40;;;;;;;5.55;2.58;;;;;;;-2.17;100.00;101294.88;5083086;28;20093;-75
2023/03/16 04:39:07;;;;;;;6.35;1.48;;;;;;;-2.13;100.00;101306.19;5080312;28;20101;-78
2023/03/16 04:41:34;;;;;;;4.80;2.42;;;;;;;-2.08;100.00;101289.34;5084816;28;20055;-79
2023/03/16 04:44:00;;;;;;;7.57;1.63;;;;;;;-2.05;100.00;101292.06;5087972;28;20039;-74
2023/03/16 04:46:28;;;;;;;5.13;1.90;;;;;;;-2.05;100.00;101294.63;5088337;28;20054;-74
2023/03/16 04:48:57;;;;;;;3.55;1.95;;;;;;;-2.03;100.00;101295.59;5086901;28;20060;-77
2023/03/16 04:51:25;;;;;;;6.95;1.80;;;;;;;-2.00;100.00;101294.06;5088833;28;20064;-77
2023/03/16 04:53:51;;;;;;;2.92;1.90;;;;;;;-1.96;100.00;101294.22;5072108;28;20036;-77
2023/03/16 04:56:18;;;;;;;6.97;1.90;;;;;;;-1.98;100.00;101290.69;5087091;28;20487;-75
2023/03/16 04:58:47;;;;;;;6.78;1.40;;;;;;;-2.00;99.78;101293.19;5085223;28;20698;-77
2023/03/16 05:01:14;;;;;;;6.15;1.30;;;;;;;-1.96;100.00;101294.22;5074652;28;20373;-73
2023/03/16 05:03:42;;;;;;;4.10;1.42;;;;;;;-1.89;100.00;101301.44;5079869;28;20044;-75
2023/03/16 05:06:09;;;;;;;1.98;1.00;;;;;;;-1.86;99.45;101302.47;5066518;28;20574;-73
2023/03/16 05:08:36;;;;;;;5.07;1.05;;;;;;;-1.80;99.36;101301.91;5081201;28;20044;-72
2023/03/16 05:11:03;;;;;;;5.03;2.47;;;;;;;-1.74;98.82;101298.78;5084425;28;20045;-73
2023/03/16 05:13:30;;;;;;;5.15;1.10;;;;;;;-1.68;98.64;101293.97;5082269;28;20039;-74
2023/03/16 05:15:56;;;;;;;5.28;0.90;;;;;;;-1.67;97.51;101294.06;5084932;28;20198;-77
2023/03/16 05:18:23;;;;;;;13.02;1.52;;;;;;;-1.73;97.53;101296.31;5091392;28;20044;-75
2023/03/16 05:20:53;;;;;;;6.95;2.88;;;;;;;-1.65;97.56;101304.41;5060806;28;20053;-76
2023/03/16 05:23:21;;;;;;;2.17;1.20;;;;;;;-1.57;98.05;101292.81;5082531;28;20036;-75
2023/03/16 05:25:49;;;;;;;4.20;1.20;;;;;;;-1.46;97.33;101293.38;5086086;28;20055;-75
2023/03/16 05:28:17;;;;;;;6.10;1.35;;;;;;;-1.40;96.28;101301.38;5079241;28;20040;-77
2023/03/16 05:30:45;;;;;;;7.10;2.00;;;;;;;-1.31;96.48;101289.81;5083754;28;20054;-76
2023/03/16 05:33:11;;;;;;;2.95;1.67;;;;;;;-1.21;96.21;101284.31;5075752;28;20093;-75
2023/03/16 05:35:38;;;;;;;5.60;1.45;;;;;;;-1.13;95.76;101276.97;5084939;28;20058;-76
2023/03/16 05:38:04;;;;;;;1.25;1.15;;;;;;;-1.07;94.88;101278.16;5085053;28;20040;-74
2023/03/16 05:40:33;;;;;;;3.42;1.02;;;;;;;-1.00;94.77;101276.78;5085124;28;20487;-77
2023/03/16 05:43:00;;;;;;;2.15;1.30;;;;;;;-0.97;93.87;101268.34;5068166;28;20056;-74
2023/03/16 05:45:32;;;;;;;2.63;1.67;;;;;;;-0.96;93.94;101277.81;5076753;28;20560;-73
2023/03/16 05:47:59;;;;;;;5.90;2.42;;;;;;;-0.95;94.15;101277.88;5085130;28;20101;-75
2023/03/16 05:50:46;;;;;;;4.25;2.03;;;;;;;-0.92;94.26;101272.88;5073060;28;20102;-77
2023/03/16 05:53:14;;;;;;;7.75;2.00;;;;;;;-0.86;93.60;101270.59;5066322;28;20466;-75
2023/03/16 05:55:44;;;;;;;5.90;1.50;;;;;;;-0.78;93.51;101267.50;5079034;28;20469;-74
2023/03/16 05:59:23;;;;;;;3.03;2.05;;;;;;;-0.69;92.76;101262.81;5080619;28;20550;-76
2023/03/16 06:04:51;;;;;;;3.22;1.55;;;;;;;-0.52;92.54;101253.31;5075528;28;20090;-75
2023/03/16 06:07:17;;;;;;;2.25;1.75;;;;;;;-0.43;91.95;101247.69;5085028;28;20044;-75
2023/03/16 06:09:45;;;;;;;6.10;1.58;;;;;;;-0.29;91.48;101251.75;5090159;28;20090;-76
2023/03/16 06:12:12;;;;;;;3.17;1.52;;;;;;;-0.16;91.22;101250.59;5089993;28;20055;-74
2023/03/16 06:14:38;;;;;;;6.18;2.42;;;;;;;-0.03;90.15;101252.94;5085250;28;20055;-78
2023/03/16 06:17:06;;;;;;;7.45;1.73;;;;;;;0.06;89.83;101243.84;5076914;28;20053;-76
2023/03/16 06:19:32;;;;;;;3.47;1.73;;;;;;;0.15;89.07;101257.09;5084747;28;20526;-75
2023/03/16 06:21:59;;;;;;;6.78;1.10;;;;;;;0.21;89.21;101241.94;5087772;28;20040;-79
2023/03/16 06:24:25;;;;;;;5.43;1.42;;;;;;;0.27;88.65;101244.75;5068852;28;20082;-79
2023/03/16 06:26:52;;;;;;;4.93;1.48;;;;;;;0.36;88.72;101249.41;5077334;28;20048;-78
2023/03/16 06:29:18;;;;;;;4.25;1.73;;;;;;;0.41;88.59;101253.06;5085643;28;20333;-75
2023/03/16 06:31:45;;;;;;;4.47;1.77;;;;;;;0.47;87.70;101253.31;5078219;28;20052;-80
2023/03/16 06:34:11;;;;;;;3.30;1.63;;;;;;;0.53;87.72;101249.25;5084729;28;20059;-77
2023/03/16 06:36:38;;;;;;;3.25;1.73;;;;;;;0.55;87.69;101257.91;5071446;28;20036;-75
2023/03/16 06:39:08;;;;;;;2.05;1.33;;;;;;;0.59;87.37;101259.81;5075710;28;20041;-80
2023/03/16 06:41:35;;;;;;;2.42;1.40;;;;;;;0.64;87.47;101258.31;5068278;28;20040;-77
2023/03/16 06:44:02;;;;;;;3.72;1.33;;;;;;;0.67;87.31;101266.16;5078852;28;20422;-75
2023/03/16 06:46:29;;;;;;;7.15;3.25;;;;;;;0.70;86.87;101255.97;5084630;28;20047;-79
2023/03/16 06:48:55;;;;;;;4.03;1.63;;;;;;;0.73;86.87;101262.94;5067177;28;20048;-80
2023/03/16 06:51:22;;;;;;;2.85;1.70;;;;;;;0.77;86.97;101273.44;5086726;28;20108;-79
2023/03/16 06:53:48;;;;;;;3.97;1.10;;;;;;;0.89;86.34;101272.19;5084673;28;20052;-80
2023/03/16 06:56:15;;;;;;;2.95;1.70;;;;;;;0.98;86.05;101270.00;5087521;28;20046;-79
2023/03/16 06:58:41;;;;;;;6.47;1.30;;;;;;;1.15;85.72;101274.09;5084867;28;20032;-77
2023/03/16 07:01:08;;;;;;;4.03;1.52;;;;;;;1.34;84.99;101279.97;5066525;28;20039;-75
2023/03/16 07:03:34;;;;;;;2.92;1.50;;;;;;;1.55;83.95;101279.03;5096107;28;20040;-78
2023/03/16 07:06:02;;;;;;;5.32;2.35;;;;;;;1.67;83.11;101279.53;5067752;28;20044;-76
2023/03/16 07:08:28;;;;;;;4.45;1.85;;;;;;;1.78;82.46;101279.91;5080535;28;20112;-77
2023/03/16 07:10:54;;;;;;;2.55;1.80;;;;;;;2.00;82.00;101291.03;5081006;28;20833;-82
2023/03/16 07:13:22;;;;;;;3.72;1.50;;;;;;;2.13;81.09;101290.66;5081632;28;20538;-77
2023/03/16 07:15:53;;;;;;;2.05;1.48;;;;;;;2.32;80.44;101281.81;5081549;28;20051;-75
2023/03/16 07:18:20;;;;;;;3.60;1.48;;;;;;;2.43;79.52;101293.41;5076625;28;20044;-79
2023/03/16 07:20:47;;;;;;;7.93;1.70;;;;;;;2.48;78.38;101278.94;5078086;28;20040;-77
2023/03/16 07:23:13;;;;;;;5.07;2.30;;;;;;;2.46;78.23;101290.06;5080292;28;20147;-78
2023/03/16 07:25:40;;;;;;;4.47;1.80;;;;;;;2.43;78.62;101287.38;5083611;28;20040;-78
2023/03/16 07:28:06;;;;;;;3.10;1.00;;;;;;;2.44;78.36;101296.91;5077571;28;20029;-80
2023/03/16 07:30:33;;;;;;;3.30;1.40;;;;;;;2.63;78.12;101294.13;5081180;28;20041;-76
2023/03/16 07:33:00;;;;;;;5.03;1.27;;;;;;;2.89;77.24;101298.38;5087748;28;20039;-79
2023/03/16 07:35:35;;;;;;;3.88;1.30;;;;;;;2.92;76.24;101309.72;5088107;28;20127;-76
2023/03/16 07:38:01;;;;;;;8.30;1.88;;;;;;;2.99;76.61;101310.78;5083410;28;20040;-76
2023/03/16 07:40:28;;;;;;;3.30;1.40;;;;;;;3.48;75.92;101311.44;5078274;28;20051;-77
2023/03/16 07:42:54;;;;;;;2.95;1.17;;;;;;;3.89;73.51;101300.59;5086785;28;20791;-76
2023/03/16 07:45:21;;;;;;;3.03;1.63;;;;;;;4.05;71.94;101302.75;5085041;28;20048;-75
2023/03/16 07:47:48;;;;;;;3.63;1.67;;;;;;;4.47;70.48;101311.69;5084469;28;20048;-76
2023/03/16 07:50:15;;;;;;;6.35;1.45;;;;;;;4.75;68.97;101315.88;5085571;28;20137;-80
2023/03/16 07:52:42;;;;;;;3.40;1.23;;;;;;;4.84;67.76;101315.25;5089253;28;20089;-76
2023/03/16 07:55:10;;;;;;;1.45;1.10;;;;;;;4.82;67.97;101324.69;5067315;28;20051;-78
2023/03/16 07:57:38;;;;;;;4.80;1.02;;;;;;;4.61;68.37;101319.81;5078194;28;20115;-78
2023/03/16 08:00:06;;;;;;;2.58;0.95;;;;;;;4.34;68.86;101313.09;5077842;28;20037;-76
2023/03/16 08:02:33;;;;;;;2.53;1.10;;;;;;;4.27;68.89;101319.78;5074431;28;20040;-80
2023/03/16 08:05:00;;;;;;;3.80;1.20;;;;;;;4.50;68.69;101316.06;5084729;28;20540;-76
2023/03/16 08:07:26;;;;;;;3.70;1.60;;;;;;;4.56;68.02;101313.63;5085408;28;20054;-82
2023/03/16 08:09:53;;;;;;;2.58;1.05;;;;;;;4.62;67.53;101319.00;5084208;28;20048;-76
2023/03/16 08:12:19;;;;;;;2.15;0.95;;;;;;;4.57;66.60;101312.81;5068227;28;20059;-79
2023/03/16 08:14:46;;;;;;;2.83;1.35;;;;;;;4.54;66.47;101307.56;5074355;28;20059;-77
2023/03/16 08:17:13;;;;;;;4.60;1.30;;;;;;;4.53;66.77;101309.25;5084134;28;20043;-76
2023/03/16 08:19:39;;;;;;;6.53;1.63;;;;;;;4.54;66.33;101308.41;5075000;28;20445;-76
2023/03/16 08:22:09;;;;;;;3.53;1.08;;;;;;;4.47;66.17;101311.69;5079925;28;20071;-81
2023/03/16 08:24:35;;;;;;;2.75;1.38;;;;;;;4.71;65.26;101310.59;5063516;28;20077;-77
2023/03/16 08:27:03;;;;;;;2.17;1.30;;;;;;;5.04;64.58;101312.25;5084928;28;20040;-79
2023/03/16 08:29:30;;;;;;;2.85;1.13;;;;;;;5.33;63.05;101312.06;5080756;28;20040;-78
2023/03/16 08:31:56;;;;;;;2.08;0.80;;;;;;;6.05;60.53;101303.28;5077340;28;20112;-77
2023/03/16 08:34:25;;;;;;;3.70;1.20;;;;;;;6.73;56.96;101306.28;5065601;28;20059;-76
2023/03/16 08:36:54;;;;;;;1.58;1.10;;;;;;;7.45;55.05;101296.09;5079296;28;20047;-78
2023/03/16 08:39:22;;;;;;;1.75;1.20;;;;;;;7.86;52.86;101302.72;5075529;28;20040;-79
2023/03/16 08:41:49;;;;;;;4.65;2.00;;;;;;;7.73;51.99;101307.78;5062041;28;20079;-77
2023/03/16 08:44:16;;;;;;;2.13;1.00;;;;;;;7.64;51.30;101306.78;5079935;28;20058;-77
2023/03/16 08:46:43;;;;;;;2.08;1.00;;;;;;;7.42;51.81;101304.75;5086277;28;20040;-78
2023/03/16 08:49:10;;;;;;;3.05;1.27;;;;;;;7.20;51.82;101306.16;5067161;28;20041;-77
2023/03/16 08:51:36;;;;;;;3.70;1.00;;;;;;;6.73;51.65;101308.88;5062631;28;20441;-81
2023/03/16 08:54:03;;;;;;;2.63;1.33;;;;;;;6.68;52.45;101303.56;5083157;28;20114;-76
2023/03/16 08:56:29;;;;;;;2.40;1.00;;;;;;;6.68;51.73;101300.09;5083275;28;20036;-78
2023/03/16 08:58:57;;;;;;;5.82;1.13;;;;;;;6.74;51.57;101290.69;5079505;28;20055;-82
2023/03/16 09:01:24;;;;;;;5.88;1.10;;;;;;;7.16;51.15;101291.34;5063698;28;20126;-79
2023/03/16 09:03:51;;;;;;;6.20;1.45;;;;;;;7.60;49.36;101290.22;5068536;28;20056;-78
2023/03/16 09:06:18;;;;;;;2.60;1.08;;;;;;;8.16;48.64;101293.53;5087695;28;20050;-83
2023/03/16 09:08:46;;;;;;;3.20;1.13;;;;;;;8.88;47.15;101289.06;5083006;28;20056;-80
2023/03/16 09:11:17;;;;;;;6.43;1.55;;;;;;;9.32;45.53;101281.53;5064425;28;20044;-77
2023/03/16 09:13:45;;;;;;;3.70;1.13;;;;;;;9.56;44.49;101284.28;5078713;28;20102;-80
2023/03/16 09:16:14;;;;;;;4.47;1.50;;;;;;;8.68;46.37;101280.16;5080719;28;20115;-78
2023/03/16 09:18:41;;;;;;;3.55;0.85;;;;;;;8.09;46.80;101284.75;5083387;28;20055;-76
2023/03/16 09:21:12;;;;;;;3.20;1.27;;;;;;;7.42;48.79;101298.69;5085596;28;20498;-77
2023/03/16 09:23:40;;;;;;;4.35;1.20;;;;;;;7.09;49.22;101290.38;5067549;28;20121;-79
2023/03/16 09:26:11;;;;;;;4.32;2.00;;;;;;;6.92;49.34;101286.63;5078414;28;20044;-85
2023/03/16 09:28:41;;;;;;;6.38;1.02;;;;;;;6.90;49.58;101296.16;5081123;28;20032;-76
2023/03/16 09:31:14;;;;;;;1.73;0.77;;;;;;;6.91;48.94;101277.94;5060439;28;20056;-75
2023/03/16 09:33:40;;;;;;;2.20;0.90;;;;;;;6.94;48.81;101284.94;5082565;28;20048;-75
2023/03/16 09:36:10;;;;;;;5.20;1.40;;;;;;;6.81;49.20;101270.84;5081738;28;20062;-76
2023/03/16 09:38:37;;;;;;;1.77;0.73;;;;;;;6.82;49.08;101271.69;5081197;28;20104;-76
2023/03/16 09:41:29;;;;;;;3.03;0.85;;;;;;;6.95;48.77;101271.06;5080314;28;20422;-78
2023/03/16 09:44:23;;;;;;;2.85;1.20;;;;;;;7.23;48.14;101271.47;5077698;28;20047;-78
2023/03/16 09:46:51;;;;;;;0.95;0.65;;;;;;;7.54;47.42;101266.72;5095979;28;20059;-78
2023/03/16 09:49:28;;;;;;;3.33;1.05;;;;;;;7.75;46.41;101260.91;5088502;28;20036;-79
2023/03/16 09:52:06;;;;;;;4.57;0.88;;;;;;;7.76;46.14;101267.88;5087864;28;20051;-79
2023/03/16 09:55:27;;;;;;;2.13;1.00;;;;;;;8.29;44.73;101258.88;5083256;28;20031;-76
2023/03/16 09:57:54;;;;;;;4.03;0.90;;;;;;;9.42;42.58;101255.44;5083430;28;20051;-77
2023/03/16 10:00:26;;;;;;;0.82;0.52;;;;;;;9.97;40.41;101251.31;5083022;28;20127;-78
2023/03/16 10:03:49;;;;;;;1.98;0.57;;;;;;;11.15;38.52;101247.09;5081860;28;20054;-75
2023/03/16 10:06:16;;;;;;;3.92;0.63;;;;;;;11.71;37.58;101254.78;5067676;28;20047;-82
2023/03/16 10:08:49;;;;;;;5.28;1.00;;;;;;;11.92;36.48;101249.44;5086671;28;20071;-78
2023/03/16 10:11:38;;;;;;;2.43;0.67;;;;;;;12.42;35.17;101262.31;5082901;28;20131;-77
2023/03/16 10:14:48;;;;;;;2.35;0.57;;;;;;;12.35;34.56;101256.22;5101395;28;20048;-78
2023/03/16 10:17:24;;;;;;;2.53;0.93;;;;;;;12.92;34.64;101257.56;5079181;28;20048;-77
2023/03/16 10:19:57;;;;;;;1.60;0.77;;;;;;;13.75;32.42;101250.53;5080215;28;20548;-81
2023/03/16 10:22:32;;;;;;;3.10;0.60;;;;;;;13.35;32.91;101249.22;5080097;28;20045;-77
2023/03/16 10:25:25;;;;;;;3.53;0.80;;;;;;;13.37;32.34;101241.34;5081595;28;20052;-76
2023/03/16 10:27:52;;;;;;;2.10;0.60;;;;;;;12.90;33.28;101228.63;5083181;28;20048;-79
2023/03/16 10:30:27;;;;;;;1.38;0.70;;;;;;;12.50;34.39;101246.50;5075230;28;20348;-77
2023/03/16 10:32:56;;;;;;;1.27;0.68;;;;;;;12.60;34.05;101242.91;5077644;28;20045;-77
2023/03/16 10:35:34;;;;;;;1.35;0.65;;;;;;;12.86;33.48;101239.22;5079471;28;20060;-76
2023/03/16 10:38:01;;;;;;;1.98;0.63;;;;;;;13.17;32.66;101229.25;5087640;28;20059;-80
2023/03/16 10:40:32;;;;;;;3.10;0.60;;;;;;;13.08;32.67;101234.63;5071919;28;20384;-76
2023/03/16 10:43:13;;;;;;;1.98;1.38;;;;;;;13.50;32.36;101229.78;5082212;28;20048;-76
2023/03/16 10:45:40;;;;;;;3.28;0.60;;;;;;;13.51;32.17;101228.06;5078642;28;20036;-78
2023/03/16 10:48:27;;;;;;;1.95;0.52;;;;;;;13.03;32.18;101228.53;5082579;28;20068;-77
2023/03/16 10:50:57;;;;;;;1.00;0.70;;;;;;;12.81;33.22;101226.09;5089806;28;20068;-78
2023/03/16 10:53:35;;;;;;;3.22;0.70;;;;;;;13.13;33.67;101213.53;5084513;28;20052;-77
2023/03/16 10:56:12;;;;;;;0.55;0.45;;;;;;;13.31;32.68;101226.50;5075894;28;20499;-76
2023/03/16 10:58:43;;;;;;;1.05;0.77;;;;;;;13.43;32.24;101222.00;5075764;28;20129;-76
2023/03/16 11:01:25;;;;;;;1.45;0.77;;;;;;;14.09;31.02;101215.88;5069101;28;20102;-77
2023/03/16 11:03:55;;;;;;;0.47;0.47;;;;;;;14.83;31.17;101213.84;5086714;28;20037;-82
2023/03/16 11:06:29;;;;;;;2.17;0.82;;;;;;;15.39;30.40;101211.03;5095287;28;20052;-82
2023/03/16 11:09:07;;;;;;;2.95;0.77;;;;;;;15.43;29.27;101206.59;5093589;28;20055;-79
2023/03/16 11:11:35;;;;;;;0.85;0.82;;;;;;;15.87;28.52;101207.44;5079922;28;20118;-76
2023/03/16 11:14:09;;;;;;;2.88;0.82;;;;;;;16.10;27.98;101220.13;5087149;28;20047;-76
2023/03/16 11:16:44;;;;;;;1.58;0.80;;;;;;;15.83;27.77;101208.41;5085473;28;20455;-77
2023/03/16 11:19:31;;;;;;;2.05;0.73;;;;;;;16.41;27.37;101208.81;5085359;28;20474;-76
2023/03/16 11:22:16;;;;;;;2.63;0.73;;;;;;;15.83;27.67;101204.00;5084168;28;20485;-79
2023/03/16 11:25:12;;;;;;;2.15;0.70;;;;;;;15.29;28.29;101209.50;5086138;28;20036;-78
2023/03/16 11:28:38;;;;;;;1.25;0.50;;;;;;;14.89;28.57;101206.72;5087359;28;20044;-81
2023/03/16 11:31:23;;;;;;;4.53;0.80;;;;;;;15.15;27.94;101201.88;5007707;28;20046;-76
2023/03/16 11:33:50;;;;;;;2.53;0.70;;;;;;;15.34;28.97;101197.06;5073195;28;20449;-78
2023/03/16 11:36:55;;;;;;;2.25;1.00;;;;;;;15.11;27.57;101197.53;5088044;28;20037;-76
2023/03/16 11:40:13;;;;;;;1.60;0.70;;;;;;;14.57;28.98;101186.16;5070326;28;20059;-81
2023/03/16 11:43:26;;;;;;;1.40;0.80;;;;;;;13.71;30.26;101170.81;5045062;28;20726;-77
2023/03/16 11:46:15;;;;;;;2.38;0.93;;;;;;;13.79;29.94;101172.44;5084554;28;20411;-77
2023/03/16 11:49:22;;;;;;;2.75;0.35;;;;;;;14.05;29.03;101166.78;5080446;28;20040;-79